createdAt,value
2018-04-18T00:01:53.738Z,20.33
2018-04-18T00:05:56.617Z,18.23
2018-04-18T00:09:59.389Z,19.90
2018-04-18T00:14:02.116Z,20.50
2018-04-18T00:18:04.861Z,21.23
2018-04-18T00:22:07.648Z,19.00
2018-04-18T00:26:10.555Z,18.33
2018-04-18T00:30:14.049Z,19.87
2018-04-18T00:34:17.921Z,16.97
2018-04-18T00:38:20.641Z,18.57
2018-04-18T00:42:23.456Z,20.20
2018-04-18T00:46:26.201Z,22.83
2018-04-18T00:50:29.011Z,22.37
2018-04-18T00:54:31.755Z,25.10
2018-04-18T00:58:34.701Z,19.90
2018-04-18T01:02:37.449Z,22.20
2018-04-18T01:06:40.322Z,20.47
2018-04-18T01:10:43.069Z,21.43
2018-04-18T01:14:45.857Z,24.23
2018-04-18T01:18:48.612Z,24.70
2018-04-18T01:22:51.467Z,25.10
2018-04-18T01:26:54.990Z,19.90
2018-04-18T01:30:58.557Z,21.83
2018-04-18T01:35:01.386Z,23.67
2018-04-18T01:39:04.361Z,22.70
2018-04-18T01:43:07.090Z,30.50
2018-04-18T01:47:10.653Z,28.53
2018-04-18T01:51:13.412Z,27.17
2018-04-18T01:55:16.977Z,25.17
2018-04-18T01:59:19.773Z,31.80
2018-04-18T02:03:22.518Z,19.00
2018-04-18T02:07:26.029Z,26.73
2018-04-18T02:11:29.713Z,33.30
2018-04-18T02:15:32.573Z,22.20
2018-04-18T02:19:35.410Z,23.20
2018-04-18T02:23:38.146Z,26.07
2018-04-18T02:27:41.737Z,23.63
2018-04-18T02:31:44.545Z,26.33
2018-04-18T02:35:47.375Z,29.00
2018-04-18T02:39:50.140Z,37.73
2018-04-18T02:43:52.878Z,30.60
2018-04-18T02:47:55.633Z,25.37
2018-04-18T02:51:58.423Z,29.43
2018-04-18T02:56:01.146Z,32.47
2018-04-18T03:00:04.873Z,30.60
2018-04-18T03:04:08.452Z,31.33
2018-04-18T03:08:11.398Z,22.43
2018-04-18T03:12:14.141Z,25.27
2018-04-18T03:16:17.095Z,34.77
2018-04-18T03:20:20.088Z,26.30
2018-04-18T03:24:22.848Z,28.23
2018-04-18T03:28:25.777Z,22.93
2018-04-18T03:32:29.273Z,25.67
2018-04-18T03:36:32.193Z,31.87
2018-04-18T03:40:35.695Z,31.60
2018-04-18T03:44:39.562Z,32.00
2018-04-18T03:48:42.344Z,31.73
2018-04-18T03:52:45.211Z,35.03
2018-04-18T03:56:48.156Z,29.70
2018-04-18T04:00:51.282Z,34.80
2018-04-18T04:04:54.008Z,37.73
2018-04-18T04:08:56.823Z,33.00
2018-04-18T04:12:59.956Z,33.27
2018-04-18T04:17:14.734Z,36.77
2018-04-18T04:21:30.099Z,38.80
2018-04-18T04:25:32.949Z,41.60
2018-04-18T04:29:35.740Z,40.97
2018-04-18T04:33:38.571Z,31.97
2018-04-18T04:37:42.145Z,43.63
2018-04-18T04:41:44.937Z,28.70
2018-04-18T04:45:47.703Z,31.17
2018-04-18T04:49:50.473Z,36.53
2018-04-18T04:53:54.018Z,36.07
2018-04-18T04:57:56.766Z,40.10
2018-04-18T05:01:59.613Z,39.30
2018-04-18T05:06:02.399Z,32.90
2018-04-18T05:10:05.190Z,34.77
2018-04-18T05:14:08.066Z,39.47
2018-04-18T05:18:10.851Z,36.27
2018-04-18T05:22:13.615Z,34.20
2018-04-18T05:26:16.437Z,47.77
2018-04-18T05:30:19.293Z,39.43
2018-04-18T05:34:22.051Z,33.87
2018-04-18T05:38:24.906Z,35.10
2018-04-18T05:42:28.254Z,34.00
2018-04-18T05:46:31.076Z,41.97
2018-04-18T05:50:34.991Z,36.40
2018-04-18T05:54:37.985Z,32.23
2018-04-18T05:58:40.948Z,29.03
2018-04-18T06:02:44.751Z,33.07
2018-04-18T06:06:47.474Z,34.57
2018-04-18T06:10:50.220Z,33.77
2018-04-18T06:14:53.755Z,26.77
2018-04-18T06:18:56.500Z,32.80
2018-04-18T06:22:59.303Z,31.13
2018-04-18T06:27:02.197Z,24.23
2018-04-18T06:31:04.948Z,18.53
2018-04-18T06:35:07.781Z,20.63
2018-04-18T06:39:10.646Z,16.63
2018-04-18T06:43:13.433Z,16.60
2018-04-18T06:47:17.097Z,15.20
2018-04-18T06:51:19.881Z,15.27
2018-04-18T06:55:25.113Z,14.27
2018-04-18T06:59:27.960Z,14.13
2018-04-18T07:03:34.295Z,15.87
2018-04-18T07:07:37.478Z,12.07
2018-04-18T07:11:41.005Z,15.03
2018-04-18T07:15:43.937Z,13.37
2018-04-18T07:19:48.591Z,12.17
2018-04-18T07:23:53.881Z,14.03
2018-04-18T07:27:57.083Z,13.13
2018-04-18T07:31:59.815Z,13.20
2018-04-18T07:36:02.626Z,14.43
2018-04-18T07:40:07.967Z,13.67
2018-04-18T07:44:10.805Z,18.17
2018-04-18T07:48:13.605Z,14.00
2018-04-18T07:52:16.424Z,14.80
2018-04-18T07:56:19.265Z,14.13
2018-04-18T08:00:22.159Z,16.23
2018-04-18T08:04:25.008Z,15.87
2018-04-18T08:08:27.863Z,14.40
2018-04-18T08:12:30.673Z,16.70
2018-04-18T08:16:33.573Z,15.37
2018-04-18T08:20:36.399Z,15.87
2018-04-18T08:24:39.186Z,16.77
2018-04-18T08:28:42.179Z,16.33
2018-04-18T08:32:44.923Z,15.77
2018-04-18T08:36:48.438Z,17.00
2018-04-18T08:40:52.227Z,15.70
2018-04-18T08:44:54.979Z,16.30
2018-04-18T08:48:57.925Z,17.10
2018-04-18T08:53:00.726Z,12.90
2018-04-18T08:57:03.562Z,13.00
2018-04-18T09:01:07.161Z,14.40
2018-04-18T09:05:10.009Z,12.93
2018-04-18T09:09:12.880Z,11.13
2018-04-18T09:13:16.379Z,13.00
2018-04-18T09:17:19.948Z,12.07
2018-04-18T09:21:22.739Z,11.20
2018-04-18T09:25:25.473Z,10.67
2018-04-18T09:29:28.318Z,12.53
2018-04-18T09:33:31.055Z,11.03
2018-04-18T09:37:33.846Z,11.20
2018-04-18T09:41:37.420Z,10.67
2018-04-18T09:45:40.157Z,10.87
2018-04-18T09:49:42.977Z,9.77
2018-04-18T09:53:45.720Z,10.80
2018-04-18T09:57:48.472Z,11.40
2018-04-18T10:01:51.492Z,8.97
2018-04-18T10:05:55.217Z,9.03
2018-04-18T10:10:00.274Z,8.83
2018-04-18T10:14:03.231Z,10.37
2018-04-18T10:18:06.306Z,7.70
2018-04-18T10:22:09.170Z,7.70
2018-04-18T10:26:12.865Z,9.83
2018-04-18T10:30:16.989Z,9.17
2018-04-18T10:34:19.973Z,6.97
2018-04-18T10:38:22.835Z,7.83
2018-04-18T10:42:25.704Z,10.73
2018-04-18T10:46:28.437Z,6.63
2018-04-18T10:50:31.575Z,9.10
2018-04-18T10:54:34.599Z,7.57
2018-04-18T10:58:37.573Z,6.73
2018-04-18T11:02:40.722Z,7.80
2018-04-18T11:06:43.677Z,6.57
2018-04-18T11:10:46.661Z,7.30
2018-04-18T11:14:49.483Z,7.97
2018-04-18T11:18:52.274Z,9.70
2018-04-18T11:22:54.988Z,7.07
2018-04-18T11:26:57.744Z,7.80
2018-04-18T11:31:02.642Z,6.60
2018-04-18T11:35:05.530Z,6.30
2018-04-18T11:39:08.296Z,6.63
2018-04-18T11:43:11.120Z,6.30
2018-04-18T11:47:13.914Z,7.07
2018-04-18T11:51:16.683Z,6.60
2018-04-18T11:55:23.290Z,9.37
2018-04-18T11:59:26.441Z,6.37
2018-04-18T12:03:29.192Z,6.60
2018-04-18T12:07:32.009Z,6.30
2018-04-18T12:11:34.997Z,7.37
2018-04-18T12:15:38.005Z,7.53
2018-04-18T12:19:40.818Z,7.33
2018-04-18T12:23:43.675Z,6.43
2018-04-18T12:27:46.449Z,6.77
2018-04-18T12:31:50.362Z,6.43
2018-04-18T12:35:53.389Z,6.63
2018-04-18T12:39:56.864Z,8.03
2018-04-18T12:43:59.731Z,8.50
2018-04-18T12:48:02.458Z,8.40
2018-04-18T12:52:06.570Z,9.00
2018-04-18T12:56:09.337Z,8.13
2018-04-18T13:00:29.194Z,8.87
2018-04-18T13:04:32.813Z,10.20
2018-04-18T13:08:36.356Z,8.07
2018-04-18T13:12:40.252Z,8.00
2018-04-18T13:16:43.100Z,7.30
2018-04-18T13:20:45.905Z,7.90
2018-04-18T13:24:48.916Z,6.83
2018-04-18T13:28:51.811Z,7.77
2018-04-18T13:32:55.622Z,6.70
2018-04-18T13:36:58.419Z,8.80
2018-04-18T13:41:01.280Z,8.20
2018-04-18T13:45:04.322Z,8.00
2018-04-18T13:49:08.026Z,8.37
2018-04-18T13:53:11.037Z,12.27
2018-04-18T13:57:13.946Z,5.57
2018-04-18T14:01:17.072Z,4.73
2018-04-18T14:05:20.343Z,5.87
2018-04-18T14:09:24.800Z,5.90
2018-04-18T14:13:28.047Z,15.93
2018-04-18T14:17:31.874Z,4.77
2018-04-18T14:21:35.454Z,4.93
2018-04-18T14:25:38.453Z,4.43
2018-04-18T14:29:42.106Z,5.47
2018-04-18T14:33:45.890Z,5.27
2018-04-18T14:37:49.035Z,4.97
2018-04-18T14:41:52.810Z,4.67
2018-04-18T14:45:55.906Z,8.53
2018-04-18T14:49:58.821Z,13.03
2018-04-18T14:54:02.715Z,9.83
2018-04-18T14:58:05.916Z,8.60
2018-04-18T15:02:08.869Z,8.97
2018-04-18T15:06:13.582Z,6.40
2018-04-18T15:10:17.487Z,6.87
2018-04-18T15:14:20.369Z,6.87
2018-04-18T15:18:30.419Z,6.53
2018-04-18T15:22:34.076Z,8.10
2018-04-18T15:26:39.653Z,7.37
2018-04-18T15:30:42.792Z,6.57
2018-04-18T15:34:46.473Z,8.37
2018-04-18T15:38:49.387Z,5.70
2018-04-18T15:42:52.381Z,6.50
2018-04-18T15:46:55.361Z,4.80
2018-04-18T15:50:58.095Z,10.10
2018-04-18T15:55:01.124Z,8.20
2018-04-18T15:59:04.691Z,6.33
2018-04-18T16:03:07.694Z,7.90
2018-04-18T16:07:10.505Z,6.77
2018-04-18T16:11:13.345Z,39.33
2018-04-18T16:15:16.912Z,4.90
2018-04-18T16:19:22.135Z,5.43
2018-04-18T16:23:24.913Z,4.40
2018-04-18T16:27:28.529Z,6.00
2018-04-18T16:31:32.052Z,4.80
2018-04-18T16:35:35.543Z,7.43
2018-04-18T16:39:38.342Z,5.37
2018-04-18T16:43:41.230Z,4.43
2018-04-18T16:47:45.002Z,4.53
2018-04-18T16:51:47.841Z,4.10
2018-04-18T16:55:50.593Z,4.63
2018-04-18T16:59:53.418Z,5.13
2018-04-18T17:03:56.176Z,10.13
2018-04-18T17:08:03.189Z,4.10
2018-04-18T17:12:05.967Z,6.10
2018-04-18T17:16:09.701Z,5.33
2018-04-18T17:20:12.451Z,9.70
2018-04-18T17:24:21.882Z,4.83
2018-04-18T17:28:24.727Z,4.67
2018-04-18T17:32:27.581Z,6.90
2018-04-18T17:36:30.414Z,6.93
2018-04-18T17:40:34.032Z,6.03
2018-04-18T17:44:37.929Z,7.33
2018-04-18T17:48:41.022Z,4.70
2018-04-18T17:52:44.007Z,8.77
2018-04-18T17:56:47.613Z,8.33
2018-04-18T18:00:51.549Z,4.90
2018-04-18T18:04:54.379Z,9.73
2018-04-18T18:08:58.351Z,7.93
2018-04-18T18:13:01.467Z,6.70
2018-04-18T18:17:04.227Z,5.43
2018-04-18T18:21:08.087Z,8.00
2018-04-18T18:25:11.564Z,7.87
2018-04-18T18:29:14.682Z,15.20
2018-04-18T18:33:18.028Z,8.50
2018-04-18T18:37:20.890Z,8.17
2018-04-18T18:41:23.955Z,6.13
2018-04-18T18:45:27.315Z,6.37
2018-04-18T18:49:30.544Z,7.80
2018-04-18T18:53:34.674Z,8.70
2018-04-18T18:57:37.454Z,7.87
2018-04-18T19:01:40.877Z,11.67
2018-04-18T19:05:44.085Z,8.83
2018-04-18T19:09:47.188Z,8.33
2018-04-18T19:13:50.175Z,10.20
2018-04-18T19:17:53.459Z,12.93
2018-04-18T19:22:00.105Z,13.33
2018-04-18T19:26:03.278Z,19.70
2018-04-18T19:30:06.113Z,17.67
2018-04-18T19:34:08.967Z,28.20
2018-04-18T19:38:12.508Z,19.87
2018-04-18T19:42:18.577Z,16.93
2018-04-18T19:46:24.068Z,12.30
2018-04-18T19:50:26.829Z,15.23
2018-04-18T19:54:29.590Z,10.80
2018-04-18T19:58:32.338Z,10.20
2018-04-18T20:02:35.356Z,12.10
2018-04-18T20:06:38.966Z,12.20
2018-04-18T20:10:41.740Z,9.47
2018-04-18T20:14:44.785Z,19.03
2018-04-18T20:18:47.508Z,10.13
2018-04-18T20:22:51.264Z,19.13
2018-04-18T20:26:54.035Z,10.43
2018-04-18T20:30:57.038Z,10.60
2018-04-18T20:35:01.082Z,12.17
2018-04-18T20:39:04.037Z,12.93
2018-04-18T20:43:06.806Z,10.37
2018-04-18T20:47:09.553Z,11.47
2018-04-18T20:51:13.074Z,11.40
2018-04-18T20:55:16.660Z,10.17
2018-04-18T20:59:19.418Z,13.23
2018-04-18T21:03:22.246Z,10.37
2018-04-18T21:07:25.065Z,9.13
2018-04-18T21:11:27.909Z,11.20
2018-04-18T21:15:30.718Z,13.93
2018-04-18T21:19:34.262Z,10.00
2018-04-18T21:23:39.077Z,10.63
2018-04-18T21:27:41.872Z,8.97
2018-04-18T21:31:44.608Z,10.20
2018-04-18T21:35:47.414Z,10.50
2018-04-18T21:39:50.184Z,9.60
2018-04-18T21:43:52.977Z,11.30
2018-04-18T21:47:55.721Z,13.43
2018-04-18T21:51:58.526Z,10.50
2018-04-18T21:56:02.094Z,10.87
2018-04-18T22:00:04.965Z,11.30
2018-04-18T22:04:07.878Z,17.53
2018-04-18T22:08:10.617Z,10.43
2018-04-18T22:12:13.367Z,11.77
2018-04-18T22:16:16.171Z,11.80
2018-04-18T22:20:18.946Z,10.57
2018-04-18T22:24:21.843Z,10.13
2018-04-18T22:28:25.513Z,11.90
2018-04-18T22:32:28.246Z,11.00
2018-04-18T22:36:31.973Z,13.10
2018-04-18T22:40:34.761Z,8.80
2018-04-18T22:44:38.265Z,12.20
2018-04-18T22:48:42.036Z,11.30
2018-04-18T22:52:44.807Z,11.30
2018-04-18T22:56:48.956Z,10.93
2018-04-18T23:00:51.808Z,12.43
2018-04-18T23:04:54.638Z,12.73
2018-04-18T23:08:57.392Z,11.00
2018-04-18T23:13:00.141Z,12.57
2018-04-18T23:17:04.079Z,15.03
2018-04-18T23:21:06.826Z,9.87
2018-04-18T23:25:10.364Z,11.50
2018-04-18T23:29:13.117Z,11.60
2018-04-18T23:33:15.832Z,12.50
2018-04-18T23:37:19.406Z,13.70
2018-04-18T23:41:22.204Z,10.60
2018-04-18T23:45:25.001Z,10.47
2018-04-18T23:49:27.782Z,14.40
2018-04-18T23:53:30.585Z,14.80
2018-04-18T23:57:33.349Z,14.73
